createdAt,value
2023-05-06T00:01:24.314Z,2.70
2023-05-06T00:03:51.491Z,2.25
2023-05-06T00:06:18.016Z,2.63
2023-05-06T00:08:45.994Z,2.70
2023-05-06T00:11:13.662Z,2.50
2023-05-06T00:13:40.576Z,2.40
2023-05-06T00:16:07.455Z,2.10
2023-05-06T00:18:33.923Z,2.53
2023-05-06T00:21:00.534Z,2.65
2023-05-06T00:23:27.083Z,2.60
2023-05-06T00:25:54.862Z,2.47
2023-05-06T00:28:21.581Z,2.43
2023-05-06T00:30:48.016Z,2.67
2023-05-06T00:33:14.526Z,2.25
2023-05-06T00:35:41.070Z,2.30
2023-05-06T00:38:15.396Z,2.67
2023-05-06T00:40:42.556Z,2.50
2023-05-06T00:43:09.093Z,2.67
2023-05-06T00:45:36.788Z,2.60
2023-05-06T00:48:04.716Z,2.47
2023-05-06T00:50:33.206Z,2.00
2023-05-06T00:53:02.263Z,2.50
2023-05-06T00:55:30.207Z,2.77
2023-05-06T00:57:57.220Z,2.60
2023-05-06T01:00:23.789Z,2.10
2023-05-06T01:02:51.313Z,2.40
2023-05-06T01:05:21.006Z,2.80
2023-05-06T01:07:59.368Z,2.50
2023-05-06T01:10:52.406Z,2.37
2023-05-06T01:13:34.493Z,2.87
2023-05-06T01:16:02.592Z,3.10
2023-05-06T01:18:32.369Z,3.60
2023-05-06T01:21:00.127Z,4.23
2023-05-06T01:23:26.867Z,4.00
2023-05-06T01:25:53.327Z,3.23
2023-05-06T01:28:19.819Z,3.13
2023-05-06T01:30:52.328Z,2.93
2023-05-06T01:33:27.235Z,3.20
2023-05-06T01:36:00.640Z,3.10
2023-05-06T01:38:37.469Z,3.00
2023-05-06T01:41:04.484Z,3.67
2023-05-06T01:43:37.803Z,3.50
2023-05-06T01:46:06.808Z,3.80
2023-05-06T01:48:37.379Z,3.20
2023-05-06T01:51:04.269Z,3.30
2023-05-06T01:53:32.956Z,3.50
2023-05-06T01:56:00.578Z,4.30
2023-05-06T01:58:27.196Z,5.33
2023-05-06T02:00:53.612Z,5.10
2023-05-06T02:03:20.124Z,4.33
2023-05-06T02:05:47.314Z,3.40
2023-05-06T02:08:13.752Z,3.67
2023-05-06T02:10:40.220Z,3.43
2023-05-06T02:13:11.417Z,3.57
2023-05-06T02:15:37.869Z,3.47
2023-05-06T02:18:05.639Z,3.87
2023-05-06T02:20:32.249Z,5.10
2023-05-06T02:22:58.650Z,4.33
2023-05-06T02:25:25.040Z,3.13
2023-05-06T02:27:51.622Z,3.20
2023-05-06T02:30:18.111Z,3.17
2023-05-06T02:32:44.590Z,3.20
2023-05-06T02:35:11.294Z,3.03
2023-05-06T02:37:37.924Z,2.77
2023-05-06T02:40:06.584Z,3.60
2023-05-06T02:42:34.848Z,3.10
2023-05-06T02:45:01.512Z,3.30
2023-05-06T02:47:28.209Z,3.80
2023-05-06T02:49:54.695Z,5.20
2023-05-06T02:52:21.128Z,5.07
2023-05-06T02:54:47.842Z,3.90
2023-05-06T02:57:14.286Z,3.83
2023-05-06T02:59:40.771Z,3.40
2023-05-06T03:02:07.834Z,3.50
2023-05-06T03:04:34.304Z,3.10
2023-05-06T03:07:00.716Z,3.30
2023-05-06T03:09:27.280Z,3.10
2023-05-06T03:11:54.045Z,3.10
2023-05-06T03:14:21.317Z,2.90
2023-05-06T03:16:48.869Z,3.20
2023-05-06T03:19:15.923Z,3.47
2023-05-06T03:21:44.008Z,3.40
2023-05-06T03:24:10.552Z,4.20
2023-05-06T03:26:37.376Z,3.53
2023-05-06T03:29:05.080Z,4.07
2023-05-06T03:31:31.959Z,4.20
2023-05-06T03:34:00.788Z,4.07
2023-05-06T03:36:28.017Z,5.17
2023-05-06T03:38:55.162Z,5.80
2023-05-06T03:41:22.340Z,5.27
2023-05-06T03:43:49.084Z,4.80
2023-05-06T03:46:18.354Z,4.67
2023-05-06T03:48:45.401Z,4.50
2023-05-06T03:51:15.280Z,4.60
2023-05-06T03:53:41.915Z,4.53
2023-05-06T03:56:08.995Z,4.70
2023-05-06T03:58:36.700Z,3.80
2023-05-06T04:01:05.590Z,4.13
2023-05-06T04:03:32.740Z,4.23
2023-05-06T04:05:59.582Z,4.37
2023-05-06T04:08:26.678Z,3.80
2023-05-06T04:10:55.056Z,3.90
2023-05-06T04:13:30.450Z,4.20
2023-05-06T04:15:59.344Z,3.97
2023-05-06T04:18:32.841Z,3.90
2023-05-06T04:21:03.644Z,3.77
2023-05-06T04:23:32.748Z,3.83
2023-05-06T04:25:59.318Z,4.00
2023-05-06T04:28:27.195Z,4.10
2023-05-06T04:30:53.860Z,3.57
2023-05-06T04:33:24.211Z,3.60
2023-05-06T04:35:53.785Z,4.20
2023-05-06T04:38:25.699Z,4.00
2023-05-06T04:40:52.771Z,3.77
2023-05-06T04:43:19.428Z,4.47
2023-05-06T04:45:51.406Z,3.97
2023-05-06T04:48:23.124Z,4.17
2023-05-06T04:50:51.521Z,4.20
2023-05-06T04:53:18.216Z,4.53
2023-05-06T04:55:44.732Z,5.90
2023-05-06T04:58:11.277Z,5.70
2023-05-06T05:00:38.472Z,5.50
2023-05-06T05:03:05.378Z,5.67
2023-05-06T05:05:33.437Z,6.20
2023-05-06T05:08:01.575Z,5.83
2023-05-06T05:10:31.419Z,6.47
2023-05-06T05:12:58.676Z,6.00
2023-05-06T05:15:25.933Z,5.70
2023-05-06T05:17:52.587Z,6.27
2023-05-06T05:20:22.251Z,6.50
2023-05-06T05:22:48.832Z,5.97
2023-05-06T05:25:15.419Z,5.53
2023-05-06T05:27:43.024Z,5.97
2023-05-06T05:30:09.909Z,6.10
2023-05-06T05:32:38.448Z,6.00
2023-05-06T05:35:05.478Z,6.30
2023-05-06T05:37:33.286Z,6.67
2023-05-06T05:40:00.004Z,6.60
2023-05-06T05:42:26.912Z,6.20
2023-05-06T05:44:53.773Z,6.40
2023-05-06T05:47:20.613Z,6.22
2023-05-06T05:49:47.043Z,5.75
2023-05-06T05:52:13.778Z,5.68
2023-05-06T05:54:40.355Z,5.97
2023-05-06T05:57:06.890Z,5.53
2023-05-06T05:59:33.930Z,5.50
2023-05-06T06:02:03.730Z,6.47
2023-05-06T06:04:30.179Z,5.53
2023-05-06T06:06:58.560Z,5.80
2023-05-06T06:09:25.315Z,6.80
2023-05-06T06:11:52.410Z,7.10
2023-05-06T06:14:19.443Z,7.53
2023-05-06T06:16:47.994Z,8.73
2023-05-06T06:19:15.096Z,8.93
2023-05-06T06:21:42.351Z,10.05
2023-05-06T06:24:08.802Z,9.85
2023-05-06T06:26:35.259Z,9.07
2023-05-06T06:29:01.724Z,8.57
2023-05-06T06:31:29.187Z,7.25
2023-05-06T06:33:55.738Z,8.35
2023-05-06T06:36:22.912Z,9.52
2023-05-06T06:38:49.322Z,9.25
2023-05-06T06:41:15.846Z,10.27
2023-05-06T06:43:42.252Z,11.23
2023-05-06T06:46:19.054Z,10.43
2023-05-06T06:48:45.640Z,11.23
2023-05-06T06:51:12.077Z,11.82
2023-05-06T06:53:38.539Z,10.68
2023-05-06T06:56:10.207Z,11.23
2023-05-06T06:58:36.650Z,11.38
2023-05-06T07:01:03.197Z,11.90
2023-05-06T07:03:29.703Z,11.13
2023-05-06T07:05:56.154Z,11.43
2023-05-06T07:08:22.647Z,11.27
2023-05-06T07:10:49.105Z,10.52
2023-05-06T07:13:15.564Z,9.98
2023-05-06T07:15:42.101Z,10.18
2023-05-06T07:18:09.428Z,10.38
2023-05-06T07:20:35.845Z,9.38
2023-05-06T07:23:03.457Z,10.63
2023-05-06T07:25:31.259Z,9.07
2023-05-06T07:27:57.771Z,9.70
2023-05-06T07:30:24.218Z,9.05
2023-05-06T07:32:50.785Z,8.68
2023-05-06T07:35:17.366Z,7.70
2023-05-06T07:37:46.145Z,8.07
2023-05-06T07:40:12.816Z,8.05
2023-05-06T07:42:42.265Z,8.88
2023-05-06T07:45:10.133Z,7.38
2023-05-06T07:47:36.895Z,7.43
2023-05-06T07:50:05.116Z,6.80
2023-05-06T07:52:31.632Z,6.45
2023-05-06T07:54:58.076Z,7.43
2023-05-06T07:57:24.524Z,6.75
2023-05-06T07:59:51.942Z,6.65
2023-05-06T08:02:18.857Z,6.82
2023-05-06T08:04:45.882Z,5.93
2023-05-06T08:07:12.528Z,5.63
2023-05-06T08:09:38.984Z,5.68
2023-05-06T08:12:05.718Z,5.47
2023-05-06T08:14:32.155Z,4.75
2023-05-06T08:16:58.625Z,3.47
2023-05-06T08:19:25.090Z,2.88
2023-05-06T08:21:51.909Z,2.63
2023-05-06T08:24:18.512Z,3.70
2023-05-06T08:26:44.908Z,4.30
2023-05-06T08:29:11.322Z,2.90
2023-05-06T08:31:37.789Z,3.30
2023-05-06T08:34:04.388Z,2.70
2023-05-06T08:36:30.854Z,3.00
2023-05-06T08:38:57.421Z,1.83
2023-05-06T08:41:26.297Z,2.30
2023-05-06T08:43:54.826Z,1.40
2023-05-06T08:46:21.496Z,1.85
2023-05-06T08:48:48.140Z,1.65
2023-05-06T08:51:15.323Z,1.95
2023-05-06T08:53:48.725Z,1.50
2023-05-06T08:56:16.350Z,1.60
2023-05-06T08:58:46.720Z,1.80
2023-05-06T09:01:14.369Z,1.80
2023-05-06T09:03:40.896Z,1.70
2023-05-06T09:06:07.407Z,2.25
2023-05-06T09:08:33.844Z,2.03
2023-05-06T09:11:00.250Z,1.70
2023-05-06T09:13:26.885Z,1.88
2023-05-06T09:15:54.498Z,2.13
2023-05-06T09:18:20.893Z,1.88
2023-05-06T09:20:49.060Z,1.63
2023-05-06T09:23:17.816Z,1.55
2023-05-06T09:25:46.064Z,1.45
2023-05-06T09:28:13.583Z,2.13
2023-05-06T09:30:45.509Z,1.50
2023-05-06T09:33:12.629Z,1.60
2023-05-06T09:35:41.938Z,2.10
2023-05-06T09:38:09.653Z,2.22
2023-05-06T09:40:37.325Z,1.88
2023-05-06T09:43:04.489Z,2.10
2023-05-06T09:45:31.519Z,1.90
2023-05-06T09:47:58.857Z,2.35
2023-05-06T09:50:26.388Z,2.10
2023-05-06T09:52:55.121Z,1.90
2023-05-06T09:55:23.458Z,1.90
2023-05-06T09:57:50.301Z,2.10
2023-05-06T10:00:17.122Z,1.83
2023-05-06T10:02:45.560Z,1.90
2023-05-06T10:05:13.353Z,1.77
2023-05-06T10:07:41.917Z,1.92
2023-05-06T10:10:10.584Z,2.22
2023-05-06T10:12:37.403Z,2.13
2023-05-06T10:15:05.106Z,2.45
2023-05-06T10:17:32.727Z,1.90
2023-05-06T10:20:01.309Z,2.00
2023-05-06T10:22:56.556Z,1.83
2023-05-06T10:25:38.428Z,1.77
2023-05-06T10:28:09.664Z,2.15
2023-05-06T10:30:44.892Z,1.90
2023-05-06T10:33:12.935Z,2.10
2023-05-06T10:35:42.484Z,1.70
2023-05-06T10:38:40.412Z,1.90
2023-05-06T10:41:08.914Z,1.83
2023-05-06T10:43:39.705Z,2.25
2023-05-06T10:46:11.453Z,2.05
2023-05-06T10:48:40.288Z,2.30
2023-05-06T10:51:15.783Z,2.30
2023-05-06T10:53:55.378Z,2.17
2023-05-06T10:56:22.156Z,2.22
2023-05-06T10:58:48.817Z,2.10
2023-05-06T11:01:15.372Z,1.70
2023-05-06T11:03:45.249Z,1.75
2023-05-06T11:06:11.804Z,1.83
2023-05-06T11:08:38.885Z,1.85
2023-05-06T11:11:42.832Z,1.92
2023-05-06T11:14:13.451Z,2.00
2023-05-06T11:16:53.262Z,1.98
2023-05-06T11:19:23.137Z,1.83
2023-05-06T11:21:50.770Z,2.17
2023-05-06T11:24:40.449Z,1.92
2023-05-06T11:27:07.436Z,1.75
2023-05-06T11:29:34.016Z,1.90
2023-05-06T11:32:01.180Z,1.90
2023-05-06T11:34:29.638Z,2.00
2023-05-06T11:37:05.379Z,1.80
2023-05-06T11:39:40.597Z,2.08
2023-05-06T11:42:08.692Z,1.90
2023-05-06T11:44:38.938Z,1.90
2023-05-06T11:47:07.460Z,2.10
2023-05-06T11:49:41.109Z,2.10
2023-05-06T11:52:08.804Z,2.10
2023-05-06T11:54:38.473Z,2.03
2023-05-06T11:57:05.043Z,2.00
2023-05-06T11:59:33.547Z,2.13
2023-05-06T12:02:02.649Z,1.75
2023-05-06T12:04:37.776Z,1.63
2023-05-06T12:07:05.999Z,1.33
2023-05-06T12:09:34.186Z,1.60
2023-05-06T12:12:02.751Z,1.40
2023-05-06T12:14:29.590Z,1.75
2023-05-06T12:16:56.331Z,1.75
2023-05-06T12:19:22.883Z,1.63
2023-05-06T12:21:49.330Z,1.67
2023-05-06T12:24:26.283Z,1.65
2023-05-06T12:26:52.752Z,1.42
2023-05-06T12:29:19.172Z,1.38
2023-05-06T12:31:49.177Z,1.30
2023-05-06T12:34:18.592Z,1.40
2023-05-06T12:36:46.918Z,1.40
2023-05-06T12:39:14.234Z,1.50
2023-05-06T12:41:43.633Z,1.60
2023-05-06T12:44:29.627Z,1.42
2023-05-06T12:46:56.528Z,1.30
2023-05-06T12:49:22.988Z,1.58
2023-05-06T12:52:05.960Z,1.45
2023-05-06T12:54:32.443Z,1.45
2023-05-06T12:56:58.900Z,1.30
2023-05-06T12:59:28.503Z,1.55
2023-05-06T13:01:55.048Z,1.40
2023-05-06T13:04:22.104Z,1.27
2023-05-06T13:06:49.827Z,1.40
2023-05-06T13:09:16.340Z,1.23
2023-05-06T13:11:43.081Z,1.48
2023-05-06T13:14:10.314Z,1.50
2023-05-06T13:16:37.741Z,1.40
2023-05-06T13:19:10.901Z,1.60
2023-05-06T13:21:42.566Z,1.20
2023-05-06T13:24:09.495Z,1.02
2023-05-06T13:26:36.314Z,1.10
2023-05-06T13:29:03.065Z,1.33
2023-05-06T13:31:30.025Z,1.35
2023-05-06T13:33:56.497Z,1.25
2023-05-06T13:36:24.040Z,1.30
2023-05-06T13:38:50.540Z,1.08
2023-05-06T13:41:16.936Z,1.52
2023-05-06T13:43:43.597Z,1.05
2023-05-06T13:46:10.036Z,1.17
2023-05-06T13:48:36.456Z,1.25
2023-05-06T13:51:03.494Z,1.40
2023-05-06T13:53:29.953Z,1.42
2023-05-06T13:55:56.373Z,1.30
2023-05-06T13:58:22.926Z,1.20
2023-05-06T14:00:49.305Z,1.08
2023-05-06T14:03:15.784Z,1.05
2023-05-06T14:05:42.394Z,1.42
2023-05-06T14:08:08.887Z,1.23
2023-05-06T14:10:35.323Z,1.00
2023-05-06T14:13:01.939Z,1.27
2023-05-06T14:15:28.845Z,1.25
2023-05-06T14:17:55.273Z,1.10
2023-05-06T14:20:21.810Z,1.05
2023-05-06T14:22:48.280Z,1.10
2023-05-06T14:25:14.681Z,1.02
2023-05-06T14:27:41.225Z,1.20
2023-05-06T14:30:09.696Z,1.23
2023-05-06T14:32:37.282Z,0.90
2023-05-06T14:35:04.398Z,1.15
2023-05-06T14:37:30.903Z,0.90
2023-05-06T14:39:57.426Z,1.20
2023-05-06T14:42:23.878Z,1.00
2023-05-06T14:44:50.716Z,1.13
2023-05-06T14:47:17.452Z,1.02
2023-05-06T14:49:44.086Z,1.00
2023-05-06T14:52:10.613Z,1.10
2023-05-06T14:54:41.987Z,1.10
2023-05-06T14:57:09.253Z,1.42
2023-05-06T14:59:36.512Z,1.50
2023-05-06T15:02:03.685Z,1.15
2023-05-06T15:04:30.861Z,1.33
2023-05-06T15:06:57.728Z,1.30
2023-05-06T15:09:25.479Z,1.40
2023-05-06T15:11:51.978Z,1.02
2023-05-06T15:14:18.621Z,1.77
2023-05-06T15:16:45.062Z,1.30
2023-05-06T15:19:11.509Z,1.50
2023-05-06T15:21:37.959Z,1.38
2023-05-06T15:24:04.579Z,1.30
2023-05-06T15:26:31.315Z,1.40
2023-05-06T15:28:57.984Z,1.67
2023-05-06T15:31:24.421Z,1.50
2023-05-06T15:33:52.970Z,1.40
2023-05-06T15:36:19.393Z,1.20
2023-05-06T15:38:51.650Z,1.17
2023-05-06T15:41:19.096Z,1.30
2023-05-06T15:43:45.583Z,1.08
2023-05-06T15:46:12.157Z,1.30
2023-05-06T15:48:38.810Z,1.17
2023-05-06T15:51:06.098Z,1.20
2023-05-06T15:53:32.509Z,1.10
2023-05-06T15:56:08.962Z,1.15
2023-05-06T15:58:42.671Z,1.30
2023-05-06T16:01:09.941Z,1.60
2023-05-06T16:03:37.880Z,1.52
2023-05-06T16:06:04.557Z,1.52
2023-05-06T16:08:31.142Z,1.40
2023-05-06T16:10:57.536Z,1.30
2023-05-06T16:13:24.121Z,1.25
2023-05-06T16:15:50.759Z,1.10
2023-05-06T16:18:17.415Z,1.20
2023-05-06T16:20:43.837Z,1.75
2023-05-06T16:23:10.656Z,1.15
2023-05-06T16:25:39.692Z,1.45
2023-05-06T16:28:06.682Z,1.13
2023-05-06T16:30:33.182Z,1.00
2023-05-06T16:32:59.642Z,1.10
2023-05-06T16:35:26.225Z,1.02
2023-05-06T16:37:52.713Z,0.82
2023-05-06T16:40:22.744Z,1.10
2023-05-06T16:42:50.032Z,1.10
2023-05-06T16:45:16.790Z,0.90
2023-05-06T16:47:43.840Z,0.82
2023-05-06T16:50:11.434Z,1.20
2023-05-06T16:52:38.200Z,1.45
2023-05-06T16:55:05.782Z,1.10
2023-05-06T16:57:32.165Z,1.00
2023-05-06T16:59:58.604Z,1.13
2023-05-06T17:02:25.304Z,1.10
2023-05-06T17:04:51.967Z,0.90
2023-05-06T17:07:18.724Z,1.10
2023-05-06T17:09:45.132Z,1.02
2023-05-06T17:12:11.557Z,1.10
2023-05-06T17:14:38.080Z,1.00
2023-05-06T17:17:05.416Z,1.00
2023-05-06T17:19:32.833Z,1.40
2023-05-06T17:21:59.377Z,1.25
2023-05-06T17:24:25.973Z,1.40
2023-05-06T17:26:52.406Z,1.08
2023-05-06T17:29:19.248Z,0.80
2023-05-06T17:31:45.678Z,1.20
2023-05-06T17:34:12.292Z,1.02
2023-05-06T17:36:38.788Z,1.13
2023-05-06T17:39:05.857Z,1.10
2023-05-06T17:41:32.616Z,1.10
2023-05-06T17:43:59.546Z,1.20
2023-05-06T17:46:26.010Z,1.20
2023-05-06T17:48:53.088Z,1.27
2023-05-06T17:51:19.649Z,0.95
2023-05-06T17:53:46.031Z,1.30
2023-05-06T17:56:12.450Z,1.20
2023-05-06T17:58:38.924Z,1.10
2023-05-06T18:01:05.512Z,1.20
2023-05-06T18:03:32.093Z,1.17
2023-05-06T18:05:58.664Z,1.20
2023-05-06T18:08:25.172Z,1.30
2023-05-06T18:10:51.831Z,1.08
2023-05-06T18:13:18.404Z,1.45
2023-05-06T18:15:44.859Z,1.25
2023-05-06T18:18:11.395Z,1.20
2023-05-06T18:20:37.897Z,1.30
2023-05-06T18:23:04.293Z,1.17
2023-05-06T18:25:31.168Z,1.38
2023-05-06T18:27:57.764Z,1.30
2023-05-06T18:30:24.336Z,1.30
2023-05-06T18:32:52.345Z,1.50
2023-05-06T18:35:19.884Z,1.60
2023-05-06T18:37:46.263Z,1.60
2023-05-06T18:40:14.585Z,1.50
2023-05-06T18:42:41.277Z,1.60
2023-05-06T18:45:08.534Z,1.58
2023-05-06T18:47:36.908Z,1.45
2023-05-06T18:50:03.742Z,1.45
2023-05-06T18:52:30.286Z,1.30
2023-05-06T18:54:56.758Z,1.52
2023-05-06T18:57:24.249Z,1.50
2023-05-06T18:59:50.902Z,1.67
2023-05-06T19:02:17.343Z,1.65
2023-05-06T19:04:43.983Z,1.67
2023-05-06T19:07:11.042Z,1.55
2023-05-06T19:09:37.568Z,1.20
2023-05-06T19:12:04.222Z,1.42
2023-05-06T19:14:32.292Z,1.40
2023-05-06T19:16:59.023Z,1.45
2023-05-06T19:19:25.611Z,1.30
2023-05-06T19:21:53.289Z,1.30
2023-05-06T19:24:19.980Z,1.60
2023-05-06T19:26:46.407Z,1.60
2023-05-06T19:29:14.539Z,1.50
2023-05-06T19:31:41.105Z,1.70
2023-05-06T19:34:08.299Z,1.40
2023-05-06T19:36:34.701Z,1.33
2023-05-06T19:39:01.230Z,1.63
2023-05-06T19:41:27.802Z,1.70
2023-05-06T19:43:54.309Z,2.10
2023-05-06T19:46:20.873Z,1.85
2023-05-06T19:48:47.524Z,1.75
2023-05-06T19:51:13.941Z,1.30
2023-05-06T19:53:40.401Z,1.50
2023-05-06T19:56:13.979Z,1.70
2023-05-06T19:58:40.718Z,1.55
2023-05-06T20:01:07.210Z,1.63
2023-05-06T20:03:33.767Z,1.50
2023-05-06T20:06:00.600Z,1.80
2023-05-06T20:08:27.338Z,1.90
2023-05-06T20:10:53.922Z,1.70
2023-05-06T20:13:20.885Z,1.92
2023-05-06T20:15:47.724Z,1.50
2023-05-06T20:18:14.439Z,2.40
2023-05-06T20:20:41.197Z,1.90
2023-05-06T20:23:07.602Z,1.80
2023-05-06T20:25:36.022Z,2.45
2023-05-06T20:28:05.220Z,2.30
2023-05-06T20:30:31.666Z,1.95
2023-05-06T20:32:58.188Z,2.10
2023-05-06T20:35:25.655Z,2.10
2023-05-06T20:37:54.287Z,1.80
2023-05-06T20:40:20.964Z,2.30
2023-05-06T20:42:48.158Z,2.00
2023-05-06T20:45:14.664Z,2.03
2023-05-06T20:47:41.278Z,2.17
2023-05-06T20:50:08.104Z,2.45
2023-05-06T20:52:34.534Z,2.38
2023-05-06T20:55:01.615Z,2.45
2023-05-06T20:57:28.402Z,2.78
2023-05-06T20:59:56.016Z,3.03
2023-05-06T21:02:22.571Z,2.83
2023-05-06T21:04:49.190Z,2.05
2023-05-06T21:07:15.708Z,1.90
2023-05-06T21:09:42.136Z,2.25
2023-05-06T21:12:08.571Z,2.47
2023-05-06T21:14:35.204Z,2.22
2023-05-06T21:17:01.782Z,2.20
2023-05-06T21:19:28.274Z,2.50
2023-05-06T21:21:54.661Z,2.00
2023-05-06T21:24:21.160Z,2.47
2023-05-06T21:26:47.637Z,1.90
2023-05-06T21:29:14.045Z,2.00
2023-05-06T21:31:40.549Z,2.13
2023-05-06T21:34:08.109Z,2.38
2023-05-06T21:36:37.448Z,2.20
2023-05-06T21:39:11.997Z,2.40
2023-05-06T21:41:39.163Z,2.47
2023-05-06T21:44:07.798Z,2.40
2023-05-06T21:46:34.837Z,2.35
2023-05-06T21:49:01.435Z,2.28
2023-05-06T21:51:30.084Z,2.42
2023-05-06T21:53:56.449Z,2.20
2023-05-06T21:56:22.879Z,2.40
2023-05-06T21:58:49.781Z,2.33
2023-05-06T22:01:16.473Z,2.40
2023-05-06T22:03:45.989Z,2.30
2023-05-06T22:06:12.662Z,2.30
2023-05-06T22:08:39.978Z,2.38
2023-05-06T22:11:06.942Z,2.08
2023-05-06T22:13:33.566Z,2.80
2023-05-06T22:16:00.047Z,2.45
2023-05-06T22:18:27.867Z,2.38
2023-05-06T22:20:56.443Z,2.70
2023-05-06T22:23:23.916Z,2.55
2023-05-06T22:25:54.102Z,2.80
2023-05-06T22:28:20.647Z,2.60
2023-05-06T22:30:47.116Z,2.80
2023-05-06T22:33:13.591Z,2.83
2023-05-06T22:35:40.081Z,2.67
2023-05-06T22:38:06.521Z,2.58
2023-05-06T22:40:32.943Z,2.72
2023-05-06T22:42:59.502Z,2.70
2023-05-06T22:45:26.041Z,2.95
2023-05-06T22:47:52.510Z,3.10
2023-05-06T22:50:18.940Z,3.78
2023-05-06T22:52:45.473Z,3.90
2023-05-06T22:55:12.246Z,2.90
2023-05-06T22:57:38.997Z,3.20
2023-05-06T23:00:07.165Z,3.05
2023-05-06T23:02:33.728Z,3.42
2023-05-06T23:05:00.341Z,2.97
2023-05-06T23:07:27.116Z,3.13
2023-05-06T23:09:53.871Z,3.00
2023-05-06T23:12:20.331Z,3.08
2023-05-06T23:14:46.788Z,3.70
2023-05-06T23:17:13.267Z,3.80
2023-05-06T23:19:39.741Z,3.25
2023-05-06T23:22:06.214Z,3.03
2023-05-06T23:24:32.629Z,2.78
2023-05-06T23:26:59.036Z,3.10
2023-05-06T23:29:25.491Z,2.50
2023-05-06T23:31:51.873Z,2.50
2023-05-06T23:34:18.325Z,2.30
2023-05-06T23:36:44.850Z,2.90
2023-05-06T23:39:12.054Z,2.70
2023-05-06T23:41:38.498Z,2.58
2023-05-06T23:44:05.964Z,2.70
2023-05-06T23:46:32.595Z,2.80
2023-05-06T23:48:59.098Z,3.17
2023-05-06T23:51:26.535Z,2.88
2023-05-06T23:53:53.070Z,2.53
2023-05-06T23:56:20.493Z,2.50
2023-05-06T23:58:47.025Z,3.03
